createdAt,value
2019-03-16T00:00:58.929Z,998.05
2019-03-16T00:01:58.945Z,998.28
2019-03-16T00:02:58.908Z,998.08
2019-03-16T00:03:58.900Z,998.24
2019-03-16T00:04:58.895Z,998.31
2019-03-16T00:05:58.880Z,998.17
2019-03-16T00:06:58.882Z,998.29
2019-03-16T00:07:58.869Z,998.28
2019-03-16T00:08:58.848Z,998.17
2019-03-16T00:09:58.841Z,998.31
2019-03-16T00:10:58.835Z,998.30
2019-03-16T00:11:58.986Z,998.37
2019-03-16T00:12:58.797Z,998.19
2019-03-16T00:13:58.792Z,998.45
2019-03-16T00:14:58.789Z,998.32
2019-03-16T00:15:58.776Z,998.38
2019-03-16T00:16:58.759Z,998.22
2019-03-16T00:17:58.790Z,998.40
2019-03-16T00:18:58.735Z,998.31
2019-03-16T00:19:58.730Z,998.37
2019-03-16T00:20:58.722Z,998.49
2019-03-16T00:21:58.706Z,998.39
2019-03-16T00:22:58.711Z,998.44
2019-03-16T00:23:58.701Z,998.40
2019-03-16T00:24:58.671Z,998.63
2019-03-16T00:25:58.656Z,998.51
2019-03-16T00:26:58.651Z,998.61
2019-03-16T00:27:58.677Z,998.60
2019-03-16T00:28:58.651Z,998.68
2019-03-16T00:29:58.615Z,998.59
2019-03-16T00:30:58.609Z,998.53
2019-03-16T00:31:58.600Z,999.07
2019-03-16T00:32:58.641Z,998.65
2019-03-16T00:33:58.578Z,998.52
2019-03-16T00:34:58.586Z,998.63
2019-03-16T00:35:58.608Z,998.69
2019-03-16T00:36:58.546Z,998.67
2019-03-16T00:37:58.585Z,998.61
2019-03-16T00:38:58.574Z,998.70
2019-03-16T00:39:58.513Z,998.75
2019-03-16T00:40:58.505Z,998.67
2019-03-16T00:41:58.492Z,998.86
2019-03-16T00:42:58.485Z,998.71
2019-03-16T00:43:58.464Z,998.86
2019-03-16T00:44:58.501Z,998.90
2019-03-16T00:45:58.445Z,998.89
2019-03-16T00:46:58.448Z,998.76
2019-03-16T00:47:58.427Z,998.86
2019-03-16T00:48:58.415Z,998.86
2019-03-16T00:49:58.431Z,998.99
2019-03-16T00:50:58.419Z,998.84
2019-03-16T00:51:58.405Z,999.02
2019-03-16T00:52:58.391Z,998.80
2019-03-16T00:53:58.393Z,998.94
2019-03-16T00:54:58.387Z,999.04
2019-03-16T00:55:58.351Z,999.44
2019-03-16T00:56:58.348Z,999.07
2019-03-16T00:57:58.329Z,999.06
2019-03-16T00:58:58.328Z,998.98
2019-03-16T00:59:58.353Z,998.91
2019-03-16T01:00:58.323Z,999.00
2019-03-16T01:01:58.292Z,999.05
2019-03-16T01:02:58.263Z,999.11
2019-03-16T01:03:58.260Z,999.13
2019-03-16T01:04:58.283Z,998.94
2019-03-16T01:05:58.307Z,999.22
2019-03-16T01:06:58.231Z,999.11
2019-03-16T01:07:58.212Z,999.09
2019-03-16T01:08:58.209Z,999.16
2019-03-16T01:09:58.215Z,999.18
2019-03-16T01:10:58.215Z,999.28
2019-03-16T01:11:58.165Z,999.21
2019-03-16T01:12:58.170Z,999.19
2019-03-16T01:13:58.172Z,999.38
2019-03-16T01:14:58.158Z,999.20
2019-03-16T01:15:58.154Z,999.35
2019-03-16T01:16:58.126Z,999.12
2019-03-16T01:17:58.106Z,999.51
2019-03-16T01:18:58.093Z,999.24
2019-03-16T01:19:58.112Z,999.12
2019-03-16T01:20:58.096Z,999.09
2019-03-16T01:21:58.096Z,999.20
2019-03-16T01:22:58.068Z,999.17
2019-03-16T01:23:58.090Z,999.23
2019-03-16T01:24:58.023Z,999.23
2019-03-16T01:25:58.030Z,999.32
2019-03-16T01:26:58.048Z,999.27
2019-03-16T01:27:58.035Z,999.35
2019-03-16T01:28:58.012Z,999.29
2019-03-16T01:29:57.975Z,999.13
2019-03-16T01:30:57.980Z,999.30
2019-03-16T01:31:57.960Z,999.20
2019-03-16T01:32:57.965Z,999.42
2019-03-16T01:33:57.939Z,999.32
2019-03-16T01:34:57.920Z,999.41
2019-03-16T01:35:57.916Z,999.52
2019-03-16T01:36:57.920Z,999.30
2019-03-16T01:37:57.903Z,999.32
2019-03-16T01:38:57.883Z,999.25
2019-03-16T01:39:57.978Z,999.43
2019-03-16T01:40:57.857Z,999.41
2019-03-16T01:41:57.841Z,999.42
2019-03-16T01:42:57.858Z,999.45
2019-03-16T01:43:57.843Z,999.36
2019-03-16T01:44:57.823Z,999.63
2019-03-16T01:45:57.802Z,999.48
2019-03-16T01:46:57.798Z,999.46
2019-03-16T01:47:57.776Z,999.53
2019-03-16T01:48:57.789Z,999.53
2019-03-16T01:49:57.777Z,999.48
2019-03-16T01:50:57.763Z,999.45
2019-03-16T01:51:57.742Z,999.39
2019-03-16T01:52:57.744Z,999.50
2019-03-16T01:53:57.718Z,999.49
2019-03-16T01:54:57.716Z,999.51
2019-03-16T01:55:57.696Z,999.55
2019-03-16T01:56:57.685Z,999.51
2019-03-16T01:57:57.699Z,999.43
2019-03-16T01:58:57.686Z,999.77
2019-03-16T01:59:57.645Z,999.63
2019-03-16T02:00:57.646Z,999.69
2019-03-16T02:01:57.632Z,999.65
2019-03-16T02:02:57.696Z,999.82
2019-03-16T02:03:57.704Z,999.66
2019-03-16T02:04:57.602Z,1000.06
2019-03-16T02:05:57.595Z,999.82
2019-03-16T02:06:57.579Z,999.69
2019-03-16T02:07:57.572Z,999.91
2019-03-16T02:08:57.574Z,1000.08
2019-03-16T02:09:57.551Z,999.77
2019-03-16T02:10:57.536Z,999.95
2019-03-16T02:12:00.372Z,1000.10
2019-03-16T02:12:57.506Z,999.78
2019-03-16T02:13:57.524Z,999.79
2019-03-16T02:14:57.491Z,999.82
2019-03-16T02:16:10.419Z,999.84
2019-03-16T02:16:58.466Z,1000.16
2019-03-16T02:17:57.456Z,999.95
2019-03-16T02:18:57.443Z,999.88
2019-03-16T02:19:57.508Z,999.93
2019-03-16T02:20:57.421Z,1000.00
2019-03-16T02:21:57.411Z,999.82
2019-03-16T02:22:57.404Z,1000.03
2019-03-16T02:23:57.416Z,999.74
2019-03-16T02:24:57.378Z,999.93
2019-03-16T02:25:57.409Z,999.84
2019-03-16T02:26:57.356Z,1000.25
2019-03-16T02:27:57.368Z,999.91
2019-03-16T02:28:57.358Z,999.93
2019-03-16T02:29:57.407Z,999.98
2019-03-16T02:30:57.322Z,1000.04
2019-03-16T02:31:57.312Z,999.98
2019-03-16T02:33:11.807Z,1000.01
2019-03-16T02:33:58.340Z,999.96
2019-03-16T02:34:57.289Z,1000.16
2019-03-16T02:35:57.306Z,1000.14
2019-03-16T02:36:57.262Z,1000.07
2019-03-16T02:37:57.279Z,999.98
2019-03-16T02:38:57.239Z,1000.66
2019-03-16T02:39:57.229Z,1000.28
2019-03-16T02:40:57.244Z,1000.11
2019-03-16T02:41:57.206Z,1000.06
2019-03-16T02:42:57.213Z,1000.15
2019-03-16T02:43:57.210Z,1000.18
2019-03-16T02:44:57.196Z,1000.16
2019-03-16T02:45:57.166Z,1000.27
2019-03-16T02:46:57.174Z,1000.13
2019-03-16T02:47:57.142Z,1000.21
2019-03-16T02:48:57.131Z,1000.20
2019-03-16T02:49:57.144Z,1000.36
2019-03-16T02:50:57.112Z,1000.30
2019-03-16T02:51:57.088Z,1000.27
2019-03-16T02:52:57.127Z,1000.26
2019-03-16T02:53:57.073Z,1000.33
2019-03-16T02:54:57.124Z,1000.12
2019-03-16T02:55:57.093Z,1000.33
2019-03-16T02:56:57.047Z,1000.39
2019-03-16T02:57:57.098Z,1000.45
2019-03-16T02:58:57.035Z,1000.48
2019-03-16T02:59:57.013Z,1000.44
2019-03-16T03:00:57.008Z,1000.54
2019-03-16T03:01:56.988Z,1000.35
2019-03-16T03:02:56.988Z,1000.42
2019-03-16T03:03:56.981Z,1000.40
2019-03-16T03:04:56.986Z,1000.37
2019-03-16T03:05:56.941Z,1000.44
2019-03-16T03:06:56.944Z,1000.50
2019-03-16T03:07:56.922Z,1000.44
2019-03-16T03:08:56.968Z,1000.47
2019-03-16T03:09:56.933Z,1000.63
2019-03-16T03:10:56.919Z,1000.64
2019-03-16T03:11:56.922Z,1000.47
2019-03-16T03:12:56.882Z,1000.55
2019-03-16T03:13:56.881Z,1000.64
2019-03-16T03:14:56.843Z,1000.58
2019-03-16T03:15:56.849Z,1000.66
2019-03-16T03:16:56.827Z,1000.75
2019-03-16T03:17:56.814Z,1000.78
2019-03-16T03:18:56.827Z,1000.80
2019-03-16T03:19:56.789Z,1000.72
2019-03-16T03:20:56.784Z,1000.73
2019-03-16T03:21:56.788Z,1000.74
2019-03-16T03:22:56.756Z,1000.70
2019-03-16T03:23:56.756Z,1001.01
2019-03-16T03:24:56.765Z,1000.82
2019-03-16T03:25:56.729Z,1000.88
2019-03-16T03:26:56.726Z,1000.82
2019-03-16T03:27:56.719Z,1000.82
2019-03-16T03:28:56.719Z,1000.81
2019-03-16T03:29:57.571Z,1000.81
2019-03-16T03:30:56.763Z,1000.86
2019-03-16T03:31:56.662Z,1000.83
2019-03-16T03:32:56.664Z,1000.88
2019-03-16T03:34:01.047Z,1000.83
2019-03-16T03:34:57.642Z,1001.01
2019-03-16T03:35:56.630Z,1000.92
2019-03-16T03:36:56.638Z,1001.08
2019-03-16T03:37:56.607Z,1001.06
2019-03-16T03:38:56.591Z,1000.83
2019-03-16T03:39:56.610Z,1000.96
2019-03-16T03:41:01.222Z,1001.03
2019-03-16T03:41:57.558Z,1001.04
2019-03-16T03:42:56.542Z,1001.02
2019-03-16T03:43:56.562Z,1000.91
2019-03-16T03:44:56.525Z,1000.95
2019-03-16T03:45:56.534Z,1000.96
2019-03-16T03:46:56.496Z,1001.00
2019-03-16T03:47:56.512Z,1000.92
2019-03-16T03:48:56.475Z,1000.98
2019-03-16T03:49:56.473Z,1001.08
2019-03-16T03:50:56.458Z,1000.96
2019-03-16T03:51:56.480Z,1000.90
2019-03-16T03:52:56.454Z,1000.96
2019-03-16T03:53:56.454Z,1000.99
2019-03-16T03:54:56.428Z,1000.93
2019-03-16T03:55:56.408Z,1000.95
2019-03-16T03:56:56.404Z,1000.98
2019-03-16T03:57:56.402Z,1001.00
2019-03-16T03:58:56.384Z,1001.00
2019-03-16T03:59:56.373Z,1000.87
2019-03-16T04:00:56.359Z,1000.91
2019-03-16T04:01:56.356Z,1000.89
2019-03-16T04:02:56.359Z,1000.94
2019-03-16T04:04:13.773Z,1000.92
2019-03-16T04:04:57.340Z,1000.97
2019-03-16T04:05:56.302Z,1000.94
2019-03-16T04:06:56.285Z,1000.80
2019-03-16T04:07:56.286Z,1000.85
2019-03-16T04:08:56.376Z,1000.90
2019-03-16T04:09:56.285Z,1000.78
2019-03-16T04:10:56.242Z,1001.11
2019-03-16T04:11:56.246Z,1000.91
2019-03-16T04:12:56.217Z,1000.93
2019-03-16T04:13:56.211Z,1000.83
2019-03-16T04:14:56.227Z,1000.89
2019-03-16T04:15:56.265Z,1000.89
2019-03-16T04:16:56.190Z,1000.92
2019-03-16T04:17:56.174Z,1000.85
2019-03-16T04:18:56.156Z,1000.86
2019-03-16T04:19:56.145Z,1000.88
2019-03-16T04:20:56.165Z,1000.94
2019-03-16T04:21:56.135Z,1000.89
2019-03-16T04:22:56.124Z,1001.00
2019-03-16T04:23:56.110Z,1000.91
2019-03-16T04:24:56.085Z,1000.98
2019-03-16T04:25:56.103Z,1001.03
2019-03-16T04:26:56.149Z,1000.95
2019-03-16T04:27:56.063Z,1001.05
2019-03-16T04:28:56.047Z,1000.98
2019-03-16T04:29:56.058Z,1001.11
2019-03-16T04:30:56.028Z,1000.95
2019-03-16T04:31:56.034Z,1001.01
2019-03-16T04:32:56.041Z,1000.96
2019-03-16T04:33:56.000Z,1000.95
2019-03-16T04:34:56.008Z,1000.96
2019-03-16T04:35:55.986Z,1000.95
2019-03-16T04:36:55.965Z,1000.97
2019-03-16T04:37:55.969Z,1001.02
2019-03-16T04:38:55.941Z,1001.13
2019-03-16T04:39:55.933Z,1001.09
2019-03-16T04:40:55.924Z,1001.04
2019-03-16T04:41:55.942Z,1001.05
2019-03-16T04:42:55.896Z,1001.13
2019-03-16T04:43:55.904Z,1001.10
2019-03-16T04:44:55.879Z,1001.01
2019-03-16T04:45:55.872Z,1001.07
2019-03-16T04:46:55.860Z,1001.07
2019-03-16T04:47:55.869Z,1001.02
2019-03-16T04:48:55.837Z,1001.06
2019-03-16T04:49:55.841Z,1001.21
2019-03-16T04:50:55.811Z,1001.07
2019-03-16T04:51:55.808Z,1001.16
2019-03-16T04:52:55.800Z,1001.22
2019-03-16T04:53:55.804Z,1001.14
2019-03-16T04:54:55.777Z,1001.13
2019-03-16T04:55:55.766Z,1001.11
2019-03-16T04:56:55.755Z,1001.11
2019-03-16T04:57:55.777Z,1001.11
2019-03-16T04:58:55.738Z,1001.21
2019-03-16T04:59:55.746Z,1001.14
2019-03-16T05:00:55.706Z,1001.07
2019-03-16T05:01:55.698Z,1001.14
2019-03-16T05:02:55.684Z,1001.12
2019-03-16T05:03:55.694Z,1001.08
2019-03-16T05:04:55.669Z,1001.17
2019-03-16T05:05:55.678Z,1001.14
2019-03-16T05:06:55.683Z,1001.26
2019-03-16T05:07:55.649Z,1001.16
2019-03-16T05:08:55.623Z,1001.37
2019-03-16T05:09:55.607Z,1001.41
2019-03-16T05:10:55.707Z,1001.22
2019-03-16T05:11:55.592Z,1001.26
2019-03-16T05:12:55.583Z,1001.39
2019-03-16T05:13:55.596Z,1001.36
2019-03-16T05:14:55.556Z,1001.26
2019-03-16T05:15:55.567Z,1001.24
2019-03-16T05:16:55.557Z,1001.26
2019-03-16T05:17:55.533Z,1001.28
2019-03-16T05:18:55.560Z,1001.34
2019-03-16T05:19:55.509Z,1001.31
2019-03-16T05:20:55.531Z,1001.29
2019-03-16T05:21:55.478Z,1001.39
2019-03-16T05:22:55.539Z,1001.40
2019-03-16T05:23:55.454Z,1001.39
2019-03-16T05:24:55.469Z,1001.40
2019-03-16T05:25:55.457Z,1001.47
2019-03-16T05:26:55.443Z,1001.35
2019-03-16T05:27:55.419Z,1001.40
2019-03-16T05:28:55.430Z,1001.46
2019-03-16T05:29:55.405Z,1001.51
2019-03-16T05:30:55.391Z,1001.54
2019-03-16T05:31:55.388Z,1001.44
2019-03-16T05:32:55.386Z,1001.38
2019-03-16T05:33:55.351Z,1001.48
2019-03-16T05:34:56.758Z,1001.44
2019-03-16T05:35:55.331Z,1001.45
2019-03-16T05:36:56.234Z,1001.53
2019-03-16T05:37:55.334Z,1001.50
2019-03-16T05:38:55.291Z,1001.51
2019-03-16T05:39:55.295Z,1001.46
2019-03-16T05:40:55.313Z,1001.45
2019-03-16T05:41:55.297Z,1001.42
2019-03-16T05:42:55.264Z,1001.67
2019-03-16T05:43:55.284Z,1001.51
2019-03-16T05:44:55.232Z,1001.45
2019-03-16T05:45:55.259Z,1001.54
2019-03-16T05:46:55.268Z,1001.41
2019-03-16T05:47:55.221Z,1001.48
2019-03-16T05:48:55.211Z,1001.49
2019-03-16T05:49:55.207Z,1001.54
2019-03-16T05:50:57.494Z,1001.53
2019-03-16T05:51:55.171Z,1001.49
2019-03-16T05:52:55.187Z,1001.45
2019-03-16T05:53:55.146Z,1001.49
2019-03-16T05:54:55.152Z,1001.45
2019-03-16T05:55:55.149Z,1001.46
2019-03-16T05:56:55.105Z,1001.62
2019-03-16T05:57:55.128Z,1001.45
2019-03-16T05:58:55.213Z,1001.52
2019-03-16T05:59:55.093Z,1001.56
2019-03-16T06:00:55.085Z,1001.59
2019-03-16T06:01:55.068Z,1001.56
2019-03-16T06:02:55.047Z,1001.62
2019-03-16T06:03:55.094Z,1001.58
2019-03-16T06:04:55.019Z,1001.61
2019-03-16T06:05:55.055Z,1001.59
2019-03-16T06:06:55.037Z,1001.67
2019-03-16T06:07:54.991Z,1001.64
2019-03-16T06:08:54.989Z,1001.59
2019-03-16T06:09:55.011Z,1001.70
2019-03-16T06:10:54.958Z,1001.71
2019-03-16T06:11:54.943Z,1001.65
2019-03-16T06:12:54.938Z,1001.65
2019-03-16T06:13:54.918Z,1001.78
2019-03-16T06:14:54.951Z,1001.72
2019-03-16T06:15:54.953Z,1001.66
2019-03-16T06:16:54.996Z,1001.65
2019-03-16T06:17:54.891Z,1001.58
2019-03-16T06:18:54.874Z,1001.67
2019-03-16T06:19:54.858Z,1001.64
2019-03-16T06:20:54.846Z,1001.56
2019-03-16T06:21:54.852Z,1001.66
2019-03-16T06:22:54.842Z,1001.68
2019-03-16T06:23:54.821Z,1001.76
2019-03-16T06:24:54.803Z,1001.73
2019-03-16T06:25:54.811Z,1001.67
2019-03-16T06:26:54.821Z,1001.68
2019-03-16T06:27:54.777Z,1001.69
2019-03-16T06:28:54.764Z,1001.75
2019-03-16T06:29:54.766Z,1001.71
2019-03-16T06:30:54.742Z,1001.70
2019-03-16T06:31:54.758Z,1001.68
2019-03-16T06:32:54.716Z,1001.74
2019-03-16T06:33:54.742Z,1001.69
2019-03-16T06:34:54.706Z,1001.68
2019-03-16T06:35:54.692Z,1001.70
2019-03-16T06:36:54.676Z,1001.73
2019-03-16T06:37:54.691Z,1001.65
2019-03-16T06:38:54.651Z,1001.76
2019-03-16T06:39:54.646Z,1001.61
2019-03-16T06:40:54.636Z,1001.67
2019-03-16T06:41:54.638Z,1001.70
2019-03-16T06:42:54.667Z,1001.66
2019-03-16T06:43:54.595Z,1001.75
2019-03-16T06:44:54.595Z,1001.73
2019-03-16T06:45:54.606Z,1001.83
2019-03-16T06:46:54.566Z,1001.73
2019-03-16T06:47:54.996Z,1001.77
2019-03-16T06:48:54.574Z,1001.78
2019-03-16T06:49:54.572Z,1001.77
2019-03-16T06:50:54.533Z,1001.79
2019-03-16T06:51:54.513Z,1001.77
2019-03-16T06:52:54.509Z,1001.77
2019-03-16T06:53:54.508Z,1001.76
2019-03-16T06:54:54.523Z,1001.80
2019-03-16T06:55:54.517Z,1001.83
2019-03-16T06:56:54.465Z,1001.85
2019-03-16T06:57:54.479Z,1001.73
2019-03-16T06:58:54.448Z,1001.75
2019-03-16T06:59:54.437Z,1001.83
2019-03-16T07:00:54.445Z,1001.86
2019-03-16T07:01:54.492Z,1001.79
2019-03-16T07:02:54.446Z,1001.86
2019-03-16T07:03:54.395Z,1001.86
2019-03-16T07:04:54.383Z,1001.84
2019-03-16T07:05:54.446Z,1001.86
2019-03-16T07:06:54.361Z,1001.91
2019-03-16T07:07:54.351Z,1001.79
2019-03-16T07:08:54.349Z,1001.92
2019-03-16T07:09:54.339Z,1001.95
2019-03-16T07:10:54.331Z,1001.86
2019-03-16T07:11:54.367Z,1002.01
2019-03-16T07:12:54.299Z,1001.87
2019-03-16T07:13:54.286Z,1001.95
2019-03-16T07:14:54.272Z,1001.81
2019-03-16T07:15:54.271Z,1001.88
2019-03-16T07:17:02.008Z,1002.10
2019-03-16T07:17:55.306Z,1001.94
2019-03-16T07:18:59.033Z,1001.92
2019-03-16T07:19:55.219Z,1001.92
2019-03-16T07:20:54.206Z,1001.89
2019-03-16T07:21:54.239Z,1001.76
2019-03-16T07:22:54.208Z,1001.92
2019-03-16T07:23:54.187Z,1001.89
2019-03-16T07:24:54.167Z,1001.82
2019-03-16T07:25:54.154Z,1001.94
2019-03-16T07:26:54.153Z,1001.95
2019-03-16T07:27:54.175Z,1002.05
2019-03-16T07:28:54.120Z,1001.92
2019-03-16T07:29:54.106Z,1001.97
2019-03-16T07:30:54.096Z,1001.89
2019-03-16T07:31:54.098Z,1001.92
2019-03-16T07:32:54.080Z,1001.87
2019-03-16T07:33:54.085Z,1001.85
2019-03-16T07:34:54.074Z,1001.90
2019-03-16T07:35:54.047Z,1001.99
2019-03-16T07:36:54.049Z,1001.89
2019-03-16T07:37:54.037Z,1001.86
2019-03-16T07:38:54.025Z,1001.87
2019-03-16T07:39:54.029Z,1001.89
2019-03-16T07:40:54.000Z,1001.84
2019-03-16T07:41:53.986Z,1001.78
2019-03-16T07:42:53.973Z,1001.82
2019-03-16T07:43:53.971Z,1001.74
2019-03-16T07:45:07.276Z,1001.69
2019-03-16T07:45:54.977Z,1001.72
2019-03-16T07:46:53.924Z,1001.87
2019-03-16T07:47:53.914Z,1001.78
2019-03-16T07:48:53.905Z,1001.79
2019-03-16T07:49:53.907Z,1001.83
2019-03-16T07:50:53.877Z,1001.86
2019-03-16T07:51:54.702Z,1001.73
2019-03-16T07:52:53.878Z,1001.75
2019-03-16T07:53:53.879Z,1001.92
2019-03-16T07:54:53.838Z,1001.77
2019-03-16T07:55:53.833Z,1001.75
2019-03-16T07:56:53.830Z,1001.76
2019-03-16T07:57:53.828Z,1001.73
2019-03-16T07:58:53.799Z,1001.71
2019-03-16T07:59:53.798Z,1001.63
2019-03-16T08:00:53.769Z,1001.63
2019-03-16T08:01:53.802Z,1001.74
2019-03-16T08:02:53.767Z,1001.64
2019-03-16T08:03:53.794Z,1001.56
2019-03-16T08:04:53.734Z,1001.66
2019-03-16T08:05:53.751Z,1001.68
2019-03-16T08:06:53.729Z,1001.80
2019-03-16T08:07:53.698Z,1001.59
2019-03-16T08:08:53.701Z,1001.65
2019-03-16T08:09:53.688Z,1001.58
2019-03-16T08:10:53.704Z,1001.51
2019-03-16T08:11:53.670Z,1001.57
2019-03-16T08:12:53.678Z,1001.51
2019-03-16T08:13:53.751Z,1001.52
2019-03-16T08:14:53.624Z,1001.60
2019-03-16T08:15:53.605Z,1001.63
2019-03-16T08:16:53.601Z,1001.86
2019-03-16T08:17:53.594Z,1001.71
2019-03-16T08:18:53.609Z,1001.76
2019-03-16T08:19:53.595Z,1001.73
2019-03-16T08:20:53.566Z,1001.74
2019-03-16T08:21:53.561Z,1001.78
2019-03-16T08:22:53.546Z,1001.88
2019-03-16T08:23:53.884Z,1001.75
2019-03-16T08:24:53.544Z,1001.77
2019-03-16T08:25:53.501Z,1001.79
2019-03-16T08:26:53.510Z,1001.79
2019-03-16T08:27:54.811Z,1001.71
2019-03-16T08:28:53.474Z,1001.75
2019-03-16T08:29:53.451Z,1001.83
2019-03-16T08:30:56.618Z,1001.79
2019-03-16T08:31:53.448Z,1001.79
2019-03-16T08:32:53.441Z,1001.91
2019-03-16T08:33:53.442Z,1001.82
2019-03-16T08:34:53.416Z,1001.92
2019-03-16T08:35:53.405Z,1001.91
2019-03-16T08:36:53.420Z,1001.88
2019-03-16T08:37:53.369Z,1001.76
2019-03-16T08:38:53.387Z,1001.93
2019-03-16T08:39:53.365Z,1001.79
2019-03-16T08:40:53.388Z,1001.88
2019-03-16T08:41:53.332Z,1001.78
2019-03-16T08:42:53.354Z,1001.95
2019-03-16T08:43:53.308Z,1001.78
2019-03-16T08:44:53.287Z,1001.79
2019-03-16T08:45:53.304Z,1001.78
2019-03-16T08:46:53.272Z,1001.76
2019-03-16T08:47:54.103Z,1001.84
2019-03-16T08:48:53.278Z,1001.75
2019-03-16T08:49:53.250Z,1001.87
2019-03-16T08:50:53.230Z,1001.82
2019-03-16T08:51:53.213Z,1001.70
2019-03-16T08:52:53.935Z,1001.63
2019-03-16T08:53:53.242Z,1001.70
2019-03-16T08:54:53.179Z,1001.71
2019-03-16T08:55:53.231Z,1001.68
2019-03-16T08:56:53.160Z,1001.92
2019-03-16T08:58:05.386Z,1001.80
2019-03-16T08:58:54.158Z,1001.79
2019-03-16T08:59:53.161Z,1001.78
2019-03-16T09:00:53.113Z,1001.73
2019-03-16T09:01:53.102Z,1001.70
2019-03-16T09:02:53.129Z,1001.70
2019-03-16T09:03:53.102Z,1001.80
2019-03-16T09:04:53.178Z,1002.01
2019-03-16T09:05:53.063Z,1001.99
2019-03-16T09:06:53.177Z,1001.88
2019-03-16T09:07:53.062Z,1001.90
2019-03-16T09:08:53.108Z,1001.91
2019-03-16T09:09:53.601Z,1001.89
2019-03-16T09:10:53.028Z,1001.93
2019-03-16T09:11:52.996Z,1001.93
2019-03-16T09:12:55.323Z,1001.87
2019-03-16T09:13:52.996Z,1001.88
2019-03-16T09:14:52.956Z,1001.80
2019-03-16T09:15:52.984Z,1001.83
2019-03-16T09:16:52.962Z,1002.02
2019-03-16T09:17:52.962Z,1001.88
2019-03-16T09:18:52.933Z,1001.88
2019-03-16T09:19:52.910Z,1001.94
2019-03-16T09:20:52.938Z,1002.03
2019-03-16T09:21:52.914Z,1001.89
2019-03-16T09:22:52.868Z,1001.84
2019-03-16T09:23:52.861Z,1001.74
2019-03-16T09:24:52.923Z,1001.76
2019-03-16T09:25:52.853Z,1001.87
2019-03-16T09:26:53.155Z,1001.95
2019-03-16T09:27:52.820Z,1001.78
2019-03-16T09:28:59.998Z,1001.77
2019-03-16T09:29:53.813Z,1001.73
2019-03-16T09:30:52.790Z,1001.65
2019-03-16T09:31:52.770Z,1001.80
2019-03-16T09:32:52.788Z,1001.85
2019-03-16T09:33:52.821Z,1001.77
2019-03-16T09:34:52.740Z,1001.85
2019-03-16T09:35:52.760Z,1001.78
2019-03-16T09:36:52.773Z,1002.01
2019-03-16T09:37:52.756Z,1002.02
2019-03-16T09:38:52.696Z,1002.06
2019-03-16T09:39:52.697Z,1001.88
2019-03-16T09:40:52.673Z,1002.07
2019-03-16T09:41:52.699Z,1002.04
2019-03-16T09:42:52.657Z,1002.02
2019-03-16T09:43:52.635Z,1002.11
2019-03-16T09:44:52.645Z,1002.05
2019-03-16T09:45:52.616Z,1002.04
2019-03-16T09:46:52.638Z,1002.07
2019-03-16T09:47:52.615Z,1002.09
2019-03-16T09:48:52.601Z,1002.03
2019-03-16T09:49:52.580Z,1002.20
2019-03-16T09:50:52.576Z,1002.02
2019-03-16T09:51:52.549Z,1001.92
2019-03-16T09:52:52.573Z,1001.92
2019-03-16T09:53:52.526Z,1002.09
2019-03-16T09:54:52.538Z,1001.83
2019-03-16T09:55:52.510Z,1001.87
2019-03-16T09:57:01.043Z,1001.83
2019-03-16T09:57:53.513Z,1001.76
2019-03-16T09:58:52.493Z,1001.74
2019-03-16T09:59:52.482Z,1001.75
2019-03-16T10:00:52.450Z,1001.81
2019-03-16T10:01:52.447Z,1001.80
2019-03-16T10:02:52.463Z,1001.75
2019-03-16T10:03:52.469Z,1001.79
2019-03-16T10:04:52.423Z,1001.77
2019-03-16T10:05:52.432Z,1001.81
2019-03-16T10:06:52.392Z,1001.73
2019-03-16T10:07:52.395Z,1001.69
2019-03-16T10:08:52.369Z,1001.82
2019-03-16T10:09:52.401Z,1001.82
2019-03-16T10:10:52.371Z,1001.73
2019-03-16T10:11:52.460Z,1001.65
2019-03-16T10:12:52.320Z,1001.50
2019-03-16T10:13:52.311Z,1001.52
2019-03-16T10:14:52.316Z,1001.53
2019-03-16T10:15:52.316Z,1001.54
2019-03-16T10:16:52.327Z,1001.71
2019-03-16T10:17:52.340Z,1001.46
2019-03-16T10:18:52.264Z,1001.40
2019-03-16T10:19:52.255Z,1001.37
2019-03-16T10:20:52.245Z,1001.33
2019-03-16T10:21:52.266Z,1001.25
2019-03-16T10:22:52.220Z,1001.33
2019-03-16T10:23:52.264Z,1001.16
2019-03-16T10:24:52.200Z,1001.27
2019-03-16T10:25:52.179Z,1001.16
2019-03-16T10:26:52.180Z,1001.10
2019-03-16T10:27:52.197Z,1001.13
2019-03-16T10:28:52.151Z,1001.09
2019-03-16T10:29:52.142Z,1001.08
2019-03-16T10:30:53.236Z,1001.08
2019-03-16T10:31:52.133Z,1001.12
2019-03-16T10:32:52.151Z,1001.03
2019-03-16T10:33:52.130Z,1001.12
2019-03-16T10:34:52.083Z,1001.14
2019-03-16T10:35:52.085Z,1001.06
2019-03-16T10:36:52.058Z,1001.12
2019-03-16T10:37:52.059Z,1001.08
2019-03-16T10:38:52.083Z,1001.09
2019-03-16T10:39:52.037Z,1001.23
2019-03-16T10:40:52.455Z,1001.02
2019-03-16T10:41:52.013Z,1001.09
2019-03-16T10:42:51.996Z,1000.99
2019-03-16T10:43:52.007Z,1000.94
2019-03-16T10:44:51.992Z,1000.93
2019-03-16T10:45:51.961Z,1000.93
2019-03-16T10:46:51.965Z,1000.88
2019-03-16T10:47:51.945Z,1000.87
2019-03-16T10:48:51.954Z,1000.99
2019-03-16T10:49:51.952Z,1000.86
2019-03-16T10:50:51.930Z,1000.81
2019-03-16T10:51:51.916Z,1000.82
2019-03-16T10:52:51.896Z,1000.94
2019-03-16T10:53:51.877Z,1000.88
2019-03-16T10:54:51.910Z,1000.84
2019-03-16T10:55:51.866Z,1000.84
2019-03-16T10:56:51.849Z,1000.81
2019-03-16T10:57:51.830Z,1000.84
2019-03-16T10:58:56.491Z,1000.86
2019-03-16T10:59:52.842Z,1000.84
2019-03-16T11:00:51.792Z,1000.86
2019-03-16T11:01:51.809Z,1000.74
2019-03-16T11:02:51.805Z,1000.77
2019-03-16T11:03:51.773Z,1000.71
2019-03-16T11:04:51.759Z,1000.80
2019-03-16T11:05:51.756Z,1000.82
2019-03-16T11:06:51.744Z,1000.73
2019-03-16T11:07:51.723Z,1000.73
2019-03-16T11:08:51.713Z,1000.75
2019-03-16T11:09:51.693Z,1000.73
2019-03-16T11:10:51.711Z,1000.79
2019-03-16T11:11:51.677Z,1000.84
2019-03-16T11:12:51.670Z,1000.84
2019-03-16T11:13:51.686Z,1000.76
2019-03-16T11:14:51.644Z,1000.69
2019-03-16T11:15:51.640Z,1000.73
2019-03-16T11:16:51.675Z,1000.75
2019-03-16T11:17:51.615Z,1000.76
2019-03-16T11:18:51.608Z,1000.72
2019-03-16T11:19:51.682Z,1000.62
2019-03-16T11:20:51.598Z,1000.70
2019-03-16T11:21:51.578Z,1000.73
2019-03-16T11:22:51.683Z,1000.59
2019-03-16T11:23:51.541Z,1000.52
2019-03-16T11:24:51.538Z,1000.50
2019-03-16T11:25:51.524Z,1000.53
2019-03-16T11:26:51.544Z,1000.43
2019-03-16T11:27:51.555Z,1000.40
2019-03-16T11:28:51.502Z,1000.43
2019-03-16T11:29:51.478Z,1000.40
2019-03-16T11:30:51.478Z,1000.39
2019-03-16T11:31:51.482Z,1000.42
2019-03-16T11:32:51.454Z,1000.41
2019-03-16T11:33:51.433Z,1000.36
2019-03-16T11:34:51.440Z,1000.34
2019-03-16T11:35:51.409Z,1000.31
2019-03-16T11:36:51.395Z,1000.30
2019-03-16T11:37:51.426Z,1000.25
2019-03-16T11:38:51.410Z,1000.23
2019-03-16T11:39:51.370Z,1000.29
2019-03-16T11:40:51.355Z,1000.18
2019-03-16T11:41:51.366Z,1000.18
2019-03-16T11:42:51.393Z,1000.18
2019-03-16T11:43:51.452Z,1000.12
2019-03-16T11:44:51.321Z,1000.16
2019-03-16T11:45:51.335Z,1000.08
2019-03-16T11:46:51.319Z,1000.14
2019-03-16T11:47:51.296Z,1000.11
2019-03-16T11:48:51.270Z,1000.14
2019-03-16T11:49:51.299Z,1000.12
2019-03-16T11:50:51.252Z,1000.15
2019-03-16T11:51:51.245Z,1000.20
2019-03-16T11:52:51.433Z,1000.14
2019-03-16T11:53:51.226Z,1000.14
2019-03-16T11:54:51.238Z,1000.13
2019-03-16T11:55:51.194Z,1000.09
2019-03-16T11:56:51.174Z,1000.07
2019-03-16T11:57:51.177Z,1000.07
2019-03-16T11:58:51.166Z,1000.06
2019-03-16T11:59:51.166Z,1000.01
2019-03-16T12:00:51.168Z,999.98
2019-03-16T12:01:51.127Z,1000.07
2019-03-16T12:02:52.868Z,1000.00
2019-03-16T12:03:51.115Z,1000.05
2019-03-16T12:04:51.105Z,999.96
2019-03-16T12:05:51.108Z,999.93
2019-03-16T12:06:51.067Z,999.95
2019-03-16T12:07:51.052Z,999.97
2019-03-16T12:08:51.104Z,999.97
2019-03-16T12:09:51.043Z,999.88
2019-03-16T12:10:51.038Z,999.90